Terminal Aerodrome Forecast
Issued by NWS

Home | Current Version | Previous Version | Text Only | Print | Product List | Glossary On
Versions: 1 2 3 4 5 6 7 8 9 10 11 12 13 14 15 16 17 18 19 20
000
FTUS46 KSEW 171300 AAA
TAFPAE
TAF AMD
KPAE 171301Z 1713/1812 18008KT P6SM -RA SCT007 BKN030 OVC050
     FM171900 16014G24KT P6SM -RA BKN012 OVC020
     FM172200 19012KT P6SM -SHRA SCT012 BKN022 OVC040
     FM180200 VRB03KT 4SM -SHRA BKN008 OVC015
     FM180700 34006KT P6SM SCT020 BKN040=

USA.gov is the U.S. government's official web portal to all federal, state and local government web resources and services.